createdAt,value
2023-04-12T04:41:55.060Z,9.65
2023-04-12T04:44:51.934Z,9.68
2023-04-12T04:47:20.285Z,9.70
2023-04-12T04:49:52.949Z,9.72
2023-04-12T04:52:25.362Z,9.75
2023-04-12T04:54:57.893Z,9.76
2023-04-12T04:57:31.890Z,9.77
2023-04-12T05:00:01.269Z,9.78
2023-04-12T05:02:32.008Z,9.78
2023-04-12T05:05:04.428Z,9.79
2023-04-12T05:07:33.610Z,9.80
2023-04-12T05:10:03.339Z,9.82
2023-04-12T05:12:32.945Z,9.83
2023-04-12T05:17:36.769Z,9.84
2023-04-12T05:20:08.408Z,9.86
2023-04-12T05:22:37.301Z,9.89
2023-04-12T05:25:06.628Z,9.92
2023-04-12T05:27:38.783Z,9.94
2023-04-12T05:30:09.073Z,9.93
2023-04-12T05:32:49.096Z,9.94
2023-04-12T05:39:40.801Z,9.97
2023-04-12T05:43:30.636Z,10.00
2023-04-12T05:46:26.030Z,10.02
2023-04-12T05:49:00.611Z,10.04
2023-04-12T05:52:06.621Z,10.05
2023-04-12T05:54:35.649Z,10.07
2023-04-12T05:57:04.139Z,10.08
2023-04-12T05:59:39.177Z,10.11
2023-04-12T06:02:07.580Z,10.14
2023-04-12T06:07:19.607Z,10.26
2023-04-12T06:09:48.307Z,10.32
2023-04-12T06:12:18.192Z,10.36
2023-04-12T06:14:46.999Z,10.36
2023-04-12T06:17:15.867Z,10.36
2023-04-12T06:19:52.680Z,10.37
2023-04-12T06:22:22.935Z,10.38
2023-04-12T06:25:08.687Z,10.41
2023-04-12T06:27:40.567Z,10.43
2023-04-12T06:30:11.937Z,10.46
2023-04-12T06:32:40.610Z,10.48
2023-04-12T06:35:09.739Z,10.48
2023-04-12T06:37:38.784Z,10.50
2023-04-12T06:40:08.679Z,10.51
2023-04-12T06:42:39.151Z,10.54
2023-04-12T06:45:07.802Z,10.55
2023-04-12T06:47:38.529Z,10.58
2023-04-12T06:50:09.745Z,10.60
2023-04-12T06:52:37.976Z,10.63
2023-04-12T06:55:07.376Z,10.65
2023-04-12T06:57:35.659Z,10.66
2023-04-12T07:00:07.588Z,10.70
2023-04-12T07:02:39.587Z,10.73
2023-04-12T07:05:09.994Z,10.75
2023-04-12T07:07:39.938Z,10.77
2023-04-12T07:14:53.136Z,10.84
2023-04-12T07:22:24.026Z,10.96
2023-04-12T07:28:42.515Z,10.98
2023-04-12T07:31:47.415Z,10.97
2023-04-12T07:34:22.087Z,10.97
2023-04-12T07:36:50.575Z,10.97
2023-04-12T07:39:18.862Z,10.96
2023-04-12T07:41:48.551Z,10.96
2023-04-12T07:44:18.402Z,10.96
2023-04-12T07:46:48.660Z,10.96
2023-04-12T07:49:22.361Z,10.95
2023-04-12T07:51:51.317Z,10.95
2023-04-12T07:54:22.317Z,10.94
2023-04-12T07:57:09.470Z,10.93
2023-04-12T07:59:38.536Z,10.93
2023-04-12T08:02:25.188Z,10.93
2023-04-12T08:04:59.820Z,10.93
2023-04-12T08:07:36.055Z,10.96
2023-04-12T08:10:04.882Z,10.98
2023-04-12T08:12:33.542Z,11.02
2023-04-12T08:15:01.680Z,11.02
2023-04-12T08:17:30.663Z,11.03
2023-04-12T08:20:01.589Z,11.03
2023-04-12T08:22:30.150Z,11.06
2023-04-12T08:24:58.366Z,11.10
2023-04-12T08:27:27.173Z,11.13
2023-04-12T08:29:59.803Z,11.15
2023-04-12T08:32:30.261Z,11.14
2023-04-12T08:34:58.385Z,11.12
2023-04-12T08:37:32.176Z,11.11
2023-04-12T08:40:05.653Z,11.11
2023-04-12T08:42:44.205Z,11.09
2023-04-12T08:45:14.341Z,11.06
2023-04-12T08:47:43.274Z,11.04
2023-04-12T08:50:14.233Z,11.03
2023-04-12T08:52:43.959Z,11.01
2023-04-12T08:55:13.110Z,10.96
2023-04-12T08:57:42.364Z,10.92
2023-04-12T09:00:16.413Z,10.91
2023-04-12T09:02:48.779Z,10.89
2023-04-12T09:05:18.905Z,10.85
2023-04-12T09:07:47.211Z,10.83
2023-04-12T09:10:33.705Z,10.86
2023-04-12T09:13:39.055Z,10.88
2023-04-12T09:16:07.440Z,10.91
2023-04-12T09:18:51.743Z,10.93
2023-04-12T09:21:20.035Z,10.96
2023-04-12T09:24:11.587Z,10.99
2023-04-12T09:26:44.639Z,11.00
2023-04-12T09:29:25.198Z,11.01
2023-04-12T09:32:06.860Z,11.03
2023-04-12T09:34:37.329Z,11.05
2023-04-12T09:37:16.476Z,11.09
2023-04-12T09:40:06.197Z,11.12
2023-04-12T09:42:36.537Z,11.14
2023-04-12T09:45:22.235Z,11.15
2023-04-12T09:47:51.856Z,11.17
2023-04-12T09:50:24.783Z,11.21
2023-04-12T09:52:59.280Z,11.26
2023-04-12T09:55:33.700Z,11.30
2023-04-12T09:58:04.543Z,11.33
2023-04-12T10:00:34.708Z,11.37
2023-04-12T10:03:04.770Z,11.40
2023-04-12T10:05:35.720Z,11.43
2023-04-12T10:08:05.777Z,11.45
2023-04-12T10:10:35.035Z,11.50
2023-04-12T10:13:03.741Z,11.54
2023-04-12T10:15:37.012Z,11.56
2023-04-12T10:18:09.327Z,11.60
2023-04-12T10:20:37.794Z,11.66
2023-04-12T10:23:06.669Z,11.69
2023-04-12T10:25:35.094Z,11.72
2023-04-12T10:28:23.003Z,11.75
2023-04-12T10:30:58.269Z,11.77
2023-04-12T10:33:32.440Z,11.76
2023-04-12T10:36:11.005Z,11.77
2023-04-12T10:39:08.446Z,11.80
2023-04-12T10:41:38.509Z,11.82
2023-04-12T10:44:24.593Z,11.84
2023-04-12T10:46:53.793Z,11.89
2023-04-12T10:49:22.447Z,11.96
2023-04-12T10:52:13.942Z,12.04
2023-04-12T10:54:44.902Z,12.15
2023-04-12T10:57:43.408Z,12.24
2023-04-12T11:00:12.107Z,12.31
2023-04-12T11:03:07.699Z,12.33
2023-04-12T11:06:20.096Z,12.39
2023-04-12T11:09:37.084Z,12.50
2023-04-12T11:12:05.701Z,12.62
2023-04-12T11:14:52.858Z,12.69
2023-04-12T11:17:27.705Z,12.79
2023-04-12T11:20:01.216Z,12.86
2023-04-12T11:22:31.757Z,12.92
2023-04-12T11:25:01.481Z,12.95
2023-04-12T11:27:32.445Z,12.94
2023-04-12T11:30:07.680Z,12.97
2023-04-12T11:32:41.777Z,13.01
2023-04-12T11:35:09.896Z,13.04
2023-04-12T11:37:43.975Z,13.08
2023-04-12T11:40:12.746Z,13.11
2023-04-12T11:42:41.174Z,13.17
2023-04-12T11:45:17.242Z,13.23
2023-04-12T11:47:46.713Z,13.28
2023-04-12T11:50:33.412Z,13.32
2023-04-12T11:53:14.061Z,13.40
2023-04-12T11:55:47.611Z,13.44
2023-04-12T11:58:16.886Z,13.46
2023-04-12T12:00:46.528Z,13.50
2023-04-12T12:03:14.733Z,13.52
2023-04-12T12:05:45.378Z,13.52
2023-04-12T12:08:14.299Z,13.51
2023-04-12T12:11:04.040Z,13.49
2023-04-12T12:13:48.214Z,13.46
2023-04-12T12:16:17.736Z,13.43
2023-04-12T12:18:50.983Z,13.38
2023-04-12T12:21:21.868Z,13.32
2023-04-12T12:23:51.137Z,13.27
2023-04-12T12:26:24.625Z,13.24
2023-04-12T12:28:57.109Z,13.22
2023-04-12T12:31:28.131Z,13.20
2023-04-12T12:34:00.344Z,13.21
2023-04-12T12:36:36.213Z,13.22
2023-04-12T12:39:07.572Z,13.21
2023-04-12T12:41:36.088Z,13.17
2023-04-12T12:44:04.875Z,13.14
2023-04-12T12:46:50.765Z,13.14
2023-04-12T12:49:21.411Z,13.16
2023-04-12T12:51:52.183Z,13.17
2023-04-12T12:54:38.664Z,13.19
2023-04-12T12:57:08.894Z,13.21
2023-04-12T12:59:37.698Z,13.24
2023-04-12T13:02:07.570Z,13.23
2023-04-12T13:04:38.669Z,13.23
2023-04-12T13:07:07.831Z,13.24
2023-04-12T13:09:36.813Z,13.25
2023-04-12T13:12:10.753Z,13.29
2023-04-12T13:14:41.946Z,13.35
2023-04-12T13:17:10.513Z,13.42
2023-04-12T13:19:45.791Z,13.49
2023-04-12T13:22:14.809Z,13.56
2023-04-12T13:24:43.610Z,13.64
